Time;durP1;ratioP1;P1;durP2;ratioP2;P2;SDS_P1;SDS_P2;PMS_P1;PMS_P2;Temp;Humidity;BMP_temperature;BMP_pressure;BME280_temperature;BME280_humidity;BME280_pressure;Samples;Min_cycle;Max_cycle;Signal;HPM_P1;HPM_P2
2023/04/03 00:00:40;;;;;;;5.97;2.75;;;3.80;74.20;;;;;;5027340;28;20443;-66
2023/04/03 00:03:07;;;;;;;4.57;3.38;;;3.90;73.90;;;;;;5026622;28;20255;-65
2023/04/03 00:05:33;;;;;;;3.03;2.78;;;3.80;74.20;;;;;;5027773;28;20223;-66
2023/04/03 00:08:01;;;;;;;3.83;2.97;;;3.80;75.30;;;;;;5027102;28;20593;-65
2023/04/03 00:10:30;;;;;;;4.03;3.63;;;3.90;76.80;;;;;;5027318;28;20563;-64
2023/04/03 00:12:57;;;;;;;3.73;3.43;;;3.90;76.40;;;;;;5026839;28;20442;-65
2023/04/03 00:15:23;;;;;;;4.00;2.90;;;3.90;76.20;;;;;;5027812;28;20441;-65
2023/04/03 00:17:50;;;;;;;3.40;3.10;;;3.90;75.30;;;;;;5027826;28;20454;-67
2023/04/03 00:20:17;;;;;;;3.53;3.20;;;3.90;75.90;;;;;;5028569;28;20457;-69
2023/04/03 00:22:44;;;;;;;6.03;3.60;;;4.00;76.30;;;;;;5027984;28;20804;-68
2023/04/03 00:25:11;;;;;;;3.43;2.80;;;3.90;76.00;;;;;;5028196;28;20445;-66
2023/04/03 00:27:39;;;;;;;3.33;3.03;;;4.10;77.00;;;;;;5028103;28;20450;-67
2023/04/03 00:30:10;;;;;;;6.77;3.50;;;4.00;76.20;;;;;;5027706;28;20472;-67
2023/04/03 00:32:37;;;;;;;4.03;3.20;;;3.90;75.50;;;;;;5028012;28;20449;-66
2023/04/03 00:35:05;;;;;;;3.63;3.33;;;4.00;76.50;;;;;;5027790;28;20928;-66
2023/04/03 00:37:31;;;;;;;3.60;3.30;;;4.00;76.90;;;;;;5028216;28;20447;-67
2023/04/03 00:39:58;;;;;;;5.30;3.63;;;4.10;77.10;;;;;;5027333;28;20974;-66
2023/04/03 00:42:25;;;;;;;3.47;3.20;;;4.10;76.80;;;;;;5029056;28;20445;-66
2023/04/03 00:45:26;;;;;;;3.57;3.27;;;4.00;76.20;;;;;;5028583;28;21135;-66
2023/04/03 00:47:54;;;;;;;2.70;2.50;;;4.00;77.00;;;;;;5029707;28;20452;-66
2023/04/03 00:50:20;;;;;;;4.63;3.50;;;3.90;77.70;;;;;;5029004;28;20464;-66
2023/04/03 00:52:48;;;;;;;4.30;3.47;;;4.00;78.90;;;;;;5029323;28;20432;-66
2023/04/03 00:55:16;;;;;;;6.03;4.53;;;4.10;77.20;;;;;;5029288;28;21018;-66
2023/04/03 00:57:43;;;;;;;3.20;2.90;;;3.90;75.70;;;;;;5029361;28;20437;-66
2023/04/03 01:00:14;;;;;;;5.50;3.07;;;3.90;76.10;;;;;;5029383;28;20471;-67
2023/04/03 01:02:42;;;;;;;2.73;2.53;;;3.90;77.70;;;;;;5028692;28;20448;-66
2023/04/03 01:05:10;;;;;;;4.10;3.40;;;3.80;76.00;;;;;;5029064;28;20851;-66
2023/04/03 01:07:37;;;;;;;4.83;3.17;;;3.80;79.10;;;;;;5029256;28;20477;-66
2023/04/03 01:10:07;;;;;;;5.40;3.10;;;3.80;76.80;;;;;;5032967;28;20996;-67
2023/04/03 01:12:36;;;;;;;3.90;3.10;;;3.70;76.10;;;;;;5032226;28;20459;-66
2023/04/03 01:15:06;;;;;;;4.27;3.50;;;3.70;77.50;;;;;;5032633;28;20515;-68
2023/04/03 01:17:35;;;;;;;3.50;2.90;;;3.70;77.90;;;;;;5032507;28;20452;-66
2023/04/03 01:20:35;;;;;;;4.07;3.35;;;3.60;77.30;;;;;;5031989;28;20529;-68
2023/04/03 01:23:11;;;;;;;3.53;3.17;;;3.50;77.90;;;;;;5031957;28;20297;-66
2023/04/03 01:25:41;;;;;;;3.33;3.03;;;3.50;80.20;;;;;;5032339;28;20223;-68
2023/04/03 01:28:10;;;;;;;3.77;3.13;;;3.50;80.20;;;;;;5032106;28;20441;-65
2023/04/03 01:30:44;;;;;;;3.53;3.23;;;3.50;80.20;;;;;;5031972;28;20510;-67
2023/04/03 01:33:12;;;;;;;3.33;3.03;;;3.50;79.10;;;;;;5031603;28;20451;-67
2023/04/03 01:35:39;;;;;;;4.93;3.70;;;3.50;79.00;;;;;;5031932;28;20458;-67
2023/04/03 01:38:05;;;;;;;5.03;3.90;;;3.50;78.90;;;;;;5031953;28;20916;-63
2023/04/03 01:40:32;;;;;;;3.77;3.40;;;3.50;79.20;;;;;;5031858;28;20459;-67
2023/04/03 01:42:59;;;;;;;5.10;3.60;;;3.50;79.20;;;;;;5031589;28;20460;-68
2023/04/03 01:45:26;;;;;;;3.63;3.30;;;3.50;78.50;;;;;;5031826;28;20451;-67
2023/04/03 01:47:53;;;;;;;4.10;3.50;;;3.50;78.00;;;;;;5032157;28;20507;-67
2023/04/03 01:50:21;;;;;;;3.70;3.40;;;3.50;79.00;;;;;;5032211;28;20501;-67
2023/04/03 01:52:48;;;;;;;3.87;3.27;;;3.50;78.20;;;;;;5031421;28;20958;-67
2023/04/03 01:55:15;;;;;;;6.27;3.57;;;3.50;78.60;;;;;;5032233;28;20835;-66
2023/04/03 01:57:41;;;;;;;5.73;3.93;;;3.50;78.20;;;;;;5031742;28;20527;-66
2023/04/03 02:00:10;;;;;;;4.10;3.70;;;3.50;79.20;;;;;;5033024;28;20464;-67
2023/04/03 02:02:36;;;;;;;3.53;3.23;;;3.60;78.20;;;;;;5031551;28;20455;-65
2023/04/03 02:05:03;;;;;;;4.15;3.10;;;3.50;76.70;;;;;;5032113;28;20448;-66
2023/04/03 02:07:32;;;;;;;6.43;3.33;;;3.40;78.20;;;;;;5031530;28;20751;-66
2023/04/03 02:09:58;;;;;;;4.40;3.90;;;3.50;78.20;;;;;;5031742;28;20478;-67
2023/04/03 02:12:25;;;;;;;4.50;3.73;;;3.40;78.50;;;;;;5031344;28;20505;-65
2023/04/03 02:14:52;;;;;;;4.00;3.70;;;3.40;78.50;;;;;;5031677;28;21116;-69
2023/04/03 02:17:19;;;;;;;5.70;3.60;;;3.40;78.30;;;;;;5032487;28;20456;-66
2023/04/03 02:19:46;;;;;;;5.20;4.00;;;3.30;77.00;;;;;;5030810;28;21036;-64
2023/04/03 02:22:12;;;;;;;4.38;3.97;;;3.20;76.50;;;;;;5031060;28;20977;-65
2023/04/03 02:24:41;;;;;;;4.80;4.30;;;3.30;77.20;;;;;;5031721;28;20206;-65
2023/04/03 02:27:08;;;;;;;6.23;3.77;;;3.20;76.90;;;;;;5031762;28;20545;-65
2023/04/03 02:29:34;;;;;;;5.30;4.97;;;3.30;77.50;;;;;;5031822;28;20479;-68
2023/04/03 02:32:01;;;;;;;4.30;3.30;;;3.20;75.90;;;;;;5031950;28;20448;-66
2023/04/03 02:34:28;;;;;;;3.60;3.25;;;3.30;74.50;;;;;;5031757;28;20449;-66
2023/04/03 02:36:55;;;;;;;4.47;3.45;;;3.30;74.80;;;;;;5032010;28;20213;-67
2023/04/03 02:39:21;;;;;;;3.13;2.83;;;3.30;74.10;;;;;;5031079;28;20256;-65
2023/04/03 02:41:50;;;;;;;3.50;3.17;;;3.30;73.30;;;;;;5031306;28;20233;-66
2023/04/03 02:44:17;;;;;;;4.90;3.63;;;3.30;73.00;;;;;;5030564;28;20232;-66
2023/04/03 02:46:44;;;;;;;3.00;2.80;;;3.40;72.60;;;;;;5030949;28;20667;-66
2023/04/03 02:49:11;;;;;;;3.70;3.10;;;3.40;72.10;;;;;;5030439;28;20591;-65
2023/04/03 02:51:38;;;;;;;5.30;3.13;;;3.40;71.60;;;;;;5031048;28;20203;-66
2023/04/03 02:54:04;;;;;;;3.75;3.17;;;3.40;71.40;;;;;;5030662;28;20207;-66
2023/04/03 02:56:31;;;;;;;4.35;3.10;;;3.40;71.00;;;;;;5030802;28;20204;-69
2023/04/03 02:58:59;;;;;;;7.80;3.20;;;3.40;72.90;;;;;;5030577;28;20233;-67
2023/04/03 03:01:28;;;;;;;4.90;3.67;;;3.40;72.10;;;;;;5030702;28;20205;-66
2023/04/03 03:03:55;;;;;;;3.35;3.05;;;3.40;72.40;;;;;;5029968;28;20676;-67
2023/04/03 03:06:21;;;;;;;3.85;3.45;;;3.40;73.00;;;;;;5030457;28;20233;-69
2023/04/03 03:08:48;;;;;;;3.00;2.70;;;3.50;72.80;;;;;;5030562;28;20229;-66
2023/04/03 03:11:15;;;;;;;5.20;3.57;;;3.50;71.50;;;;;;5030612;28;20568;-67
2023/04/03 03:13:42;;;;;;;3.88;2.95;;;3.50;71.00;;;;;;5030723;28;20445;-66
2023/04/03 03:16:10;;;;;;;4.80;3.03;;;3.60;69.30;;;;;;5030424;28;20726;-66
2023/04/03 03:18:37;;;;;;;3.47;3.10;;;3.50;70.20;;;;;;5030717;28;20991;-66
2023/04/03 03:21:04;;;;;;;4.13;3.10;;;3.50;72.30;;;;;;5030632;28;20213;-65
2023/04/03 03:23:32;;;;;;;3.93;3.53;;;3.60;72.70;;;;;;5030321;28;20441;-66
2023/04/03 03:26:01;;;;;;;3.03;2.53;;;3.60;72.20;;;;;;5030952;28;20534;-67
2023/04/03 03:28:28;;;;;;;3.55;3.03;;;3.60;70.20;;;;;;5030434;28;20484;-66
2023/04/03 03:30:55;;;;;;;3.70;3.40;;;3.60;72.60;;;;;;5030046;28;20202;-66
2023/04/03 03:33:23;;;;;;;4.60;2.80;;;3.70;71.90;;;;;;5030163;28;20463;-66
2023/04/03 03:35:50;;;;;;;3.80;3.10;;;3.60;72.30;;;;;;5030249;28;20979;-67
2023/04/03 03:38:17;;;;;;;4.00;3.60;;;3.70;72.70;;;;;;5030159;28;20443;-67
2023/04/03 03:40:44;;;;;;;4.10;3.27;;;3.70;72.20;;;;;;5030143;28;20964;-66
2023/04/03 03:43:11;;;;;;;3.23;2.93;;;3.80;72.80;;;;;;5030187;28;20445;-67
2023/04/03 03:45:38;;;;;;;3.17;2.60;;;3.90;71.50;;;;;;5030356;28;20455;-66
2023/04/03 03:48:05;;;;;;;5.77;3.23;;;3.90;71.50;;;;;;5030031;28;20491;-66
2023/04/03 03:50:34;;;;;;;3.03;2.83;;;3.90;71.30;;;;;;5029054;28;21173;-67
2023/04/03 03:53:00;;;;;;;2.97;2.70;;;3.90;70.50;;;;;;5028926;28;20452;-66
2023/04/03 03:55:27;;;;;;;3.07;2.77;;;3.90;71.20;;;;;;5029688;28;20452;-65
2023/04/03 03:57:54;;;;;;;8.50;3.23;;;3.80;70.30;;;;;;5029232;28;20448;-66
2023/04/03 04:00:21;;;;;;;3.37;3.03;;;3.80;70.70;;;;;;5029344;28;20993;-67
2023/04/03 04:02:48;;;;;;;4.63;4.00;;;3.80;71.00;;;;;;5029249;28;20455;-66
2023/04/03 04:05:14;;;;;;;3.30;3.00;;;3.80;71.40;;;;;;5029130;28;20464;-66
2023/04/03 04:07:43;;;;;;;3.50;3.20;;;3.90;71.70;;;;;;5029796;28;20487;-67
2023/04/03 04:10:10;;;;;;;3.60;3.30;;;3.90;70.20;;;;;;5029628;28;20471;-66
2023/04/03 04:12:37;;;;;;;3.20;2.83;;;3.90;70.50;;;;;;5029312;28;21003;-66
2023/04/03 04:15:04;;;;;;;4.40;3.63;;;3.90;69.20;;;;;;5029215;28;20449;-67
2023/04/03 04:17:31;;;;;;;3.17;2.80;;;3.80;70.40;;;;;;5029397;28;20533;-65
2023/04/03 04:19:58;;;;;;;3.23;2.67;;;3.80;71.10;;;;;;5029351;28;20469;-67
2023/04/03 04:22:25;;;;;;;3.93;3.30;;;3.80;70.80;;;;;;5029509;28;20463;-67
2023/04/03 04:24:53;;;;;;;5.20;2.90;;;3.80;70.50;;;;;;5029438;28;21136;-65
2023/04/03 04:27:19;;;;;;;5.43;3.00;;;3.80;69.80;;;;;;5029122;28;20480;-67
2023/04/03 04:29:46;;;;;;;4.47;3.27;;;3.70;70.30;;;;;;5029377;28;20468;-66
2023/04/03 04:32:13;;;;;;;7.97;3.57;;;3.70;68.90;;;;;;5029119;28;20455;-67
2023/04/03 04:34:40;;;;;;;5.30;2.97;;;3.70;70.10;;;;;;5029169;28;20544;-65
2023/04/03 04:37:06;;;;;;;3.13;2.80;;;3.80;70.40;;;;;;5030423;28;20470;-67
2023/04/03 04:39:33;;;;;;;3.70;2.50;;;3.70;69.60;;;;;;5029857;28;20867;-66
2023/04/03 04:42:01;;;;;;;3.10;2.47;;;3.80;70.60;;;;;;5030402;28;20835;-67
2023/04/03 04:44:28;;;;;;;3.33;2.93;;;3.90;69.30;;;;;;5033033;28;20451;-68
2023/04/03 04:46:55;;;;;;;5.80;2.70;;;3.80;67.90;;;;;;5033806;28;20488;-68
2023/04/03 04:49:21;;;;;;;3.50;2.63;;;3.80;66.00;;;;;;5033258;28;20492;-66
2023/04/03 04:51:48;;;;;;;4.67;3.60;;;3.80;66.50;;;;;;5033519;28;20935;-65
2023/04/03 04:54:15;;;;;;;3.20;2.90;;;3.70;67.60;;;;;;5032663;28;20580;-66
2023/04/03 04:56:42;;;;;;;3.90;2.80;;;3.70;66.70;;;;;;5033038;28;20900;-65
2023/04/03 04:59:10;;;;;;;3.97;3.05;;;3.60;66.90;;;;;;5033136;28;20297;-65
2023/04/03 05:01:37;;;;;;;5.47;3.88;;;3.60;67.30;;;;;;5033126;28;20204;-67
2023/04/03 05:04:03;;;;;;;4.10;3.70;;;3.60;67.40;;;;;;5033228;28;20205;-68
2023/04/03 05:06:31;;;;;;;2.90;2.70;;;3.60;65.90;;;;;;5033344;28;20474;-65
2023/04/03 05:08:58;;;;;;;3.45;2.72;;;3.60;66.10;;;;;;5033154;28;20732;-64
2023/04/03 05:11:25;;;;;;;4.78;3.00;;;3.60;66.50;;;;;;5033211;28;20704;-68
2023/04/03 05:13:52;;;;;;;6.25;3.63;;;3.60;67.10;;;;;;5032746;28;20218;-67
2023/04/03 05:16:20;;;;;;;3.97;3.00;;;3.60;66.70;;;;;;5032724;28;20222;-63
2023/04/03 05:18:47;;;;;;;4.05;2.78;;;3.60;67.00;;;;;;5033012;28;20760;-66
2023/04/03 05:21:14;;;;;;;3.38;2.65;;;3.50;68.30;;;;;;5032627;28;20208;-65
2023/04/03 05:23:41;;;;;;;6.28;3.30;;;3.60;66.70;;;;;;5032730;28;20231;-64
2023/04/03 05:26:08;;;;;;;5.65;3.28;;;3.50;66.80;;;;;;5033691;28;20569;-64
2023/04/03 05:28:35;;;;;;;4.43;3.38;;;3.50;66.60;;;;;;5032683;28;20322;-65
2023/04/03 05:31:01;;;;;;;4.00;2.80;;;3.50;66.60;;;;;;5032971;28;20208;-67
2023/04/03 05:33:29;;;;;;;4.65;3.40;;;3.50;66.60;;;;;;5032691;28;20199;-65
2023/04/03 05:35:56;;;;;;;3.25;2.78;;;3.40;67.30;;;;;;5032911;28;20204;-65
2023/04/03 05:38:23;;;;;;;4.00;2.95;;;3.40;66.80;;;;;;5032707;28;20196;-65
2023/04/03 05:40:50;;;;;;;3.28;2.97;;;3.40;67.80;;;;;;5032661;28;20682;-67
2023/04/03 05:43:16;;;;;;;5.78;2.47;;;3.40;67.10;;;;;;5032259;28;20215;-66
2023/04/03 05:45:44;;;;;;;6.88;3.20;;;3.40;66.90;;;;;;5032479;28;20199;-66
2023/04/03 05:48:12;;;;;;;2.45;2.25;;;3.40;67.10;;;;;;5032217;28;20277;-65
2023/04/03 05:50:42;;;;;;;4.68;2.75;;;3.40;66.80;;;;;;5032647;28;20205;-65
2023/04/03 05:53:15;;;;;;;4.03;3.38;;;3.50;66.30;;;;;;5032129;28;20739;-65
2023/04/03 05:55:43;;;;;;;3.95;3.30;;;3.50;67.60;;;;;;5032455;28;20203;-68
2023/04/03 05:58:10;;;;;;;3.25;2.80;;;3.60;68.80;;;;;;5032272;28;20296;-68
2023/04/03 06:00:37;;;;;;;7.38;3.15;;;3.70;68.40;;;;;;5032665;28;20203;-62
2023/04/03 06:03:03;;;;;;;6.18;2.53;;;3.70;67.90;;;;;;5032078;28;20618;-66
2023/04/03 06:05:30;;;;;;;3.20;2.60;;;3.70;67.20;;;;;;5030328;28;20230;-68
2023/04/03 06:07:59;;;;;;;3.65;2.95;;;3.80;66.20;;;;;;5031444;28;20220;-66
2023/04/03 06:10:26;;;;;;;3.13;2.70;;;3.80;65.90;;;;;;5031325;28;20716;-66
2023/04/03 06:12:52;;;;;;;3.67;3.20;;;3.80;66.20;;;;;;5037258;28;20208;-67
2023/04/03 06:15:20;;;;;;;3.53;2.70;;;3.80;66.90;;;;;;5031977;28;20201;-65
2023/04/03 06:17:46;;;;;;;3.70;3.30;;;3.90;66.00;;;;;;5032163;28;20243;-69
2023/04/03 06:20:14;;;;;;;4.55;3.65;;;3.90;66.90;;;;;;5032224;28;20231;-66
2023/04/03 06:22:41;;;;;;;4.00;2.90;;;4.00;65.50;;;;;;5032042;28;20211;-66
2023/04/03 06:25:10;;;;;;;3.57;3.00;;;4.10;66.30;;;;;;5032227;28;20202;-66
2023/04/03 06:27:37;;;;;;;2.60;2.40;;;4.10;68.20;;;;;;5031681;28;20570;-67
2023/04/03 06:30:05;;;;;;;3.87;2.80;;;4.30;67.00;;;;;;5031948;28;20475;-67
2023/04/03 06:32:32;;;;;;;4.13;2.93;;;4.30;66.30;;;;;;5031571;28;20447;-66
2023/04/03 06:34:58;;;;;;;3.20;2.67;;;4.40;67.00;;;;;;5031591;28;20459;-66
2023/04/03 06:37:27;;;;;;;4.50;2.83;;;4.60;65.90;;;;;;5031515;28;20459;-66
2023/04/03 06:39:54;;;;;;;3.30;2.60;;;4.80;66.90;;;;;;5031593;28;20556;-66
2023/04/03 06:42:22;;;;;;;3.60;3.30;;;4.80;64.20;;;;;;5031596;28;20449;-66
2023/04/03 06:44:49;;;;;;;5.43;2.87;;;4.70;65.00;;;;;;5031673;28;20444;-65
2023/04/03 06:47:17;;;;;;;3.60;3.10;;;4.90;65.10;;;;;;5031313;28;20449;-67
2023/04/03 06:49:44;;;;;;;4.27;3.17;;;5.00;65.70;;;;;;5031298;28;20467;-67
2023/04/03 06:52:11;;;;;;;3.20;2.90;;;5.20;64.50;;;;;;5031082;28;20819;-67
2023/04/03 06:54:42;;;;;;;3.40;2.77;;;5.20;63.30;;;;;;5031048;28;20512;-67
2023/04/03 06:57:09;;;;;;;4.67;3.13;;;5.30;64.30;;;;;;5024762;28;20464;-66
2023/04/03 06:59:37;;;;;;;3.63;2.83;;;5.40;64.10;;;;;;5029553;28;21180;-67
2023/04/03 07:02:04;;;;;;;4.53;3.60;;;5.50;63.60;;;;;;5029480;28;20448;-67
2023/04/03 07:04:31;;;;;;;3.70;3.17;;;5.40;62.70;;;;;;5029275;28;20452;-67
2023/04/03 07:06:57;;;;;;;2.70;2.50;;;5.30;63.40;;;;;;5028804;28;20548;-62
2023/04/03 07:09:24;;;;;;;6.00;5.10;;;5.40;64.00;;;;;;5029439;28;20488;-66
2023/04/03 07:11:51;;;;;;;3.33;3.00;;;5.60;64.90;;;;;;5029868;28;20458;-68
2023/04/03 07:14:18;;;;;;;3.20;2.90;;;5.80;62.60;;;;;;5029308;28;20531;-66
2023/04/03 07:16:46;;;;;;;3.47;2.50;;;5.80;61.70;;;;;;5029239;28;20463;-67
2023/04/03 07:19:13;;;;;;;3.73;3.30;;;6.00;62.50;;;;;;5029019;28;20474;-66
2023/04/03 07:21:41;;;;;;;5.17;3.00;;;6.20;62.10;;;;;;5026189;28;21067;-67
2023/04/03 07:24:08;;;;;;;4.17;3.17;;;6.10;61.10;;;;;;5028908;28;20456;-66
2023/04/03 07:26:35;;;;;;;3.47;3.17;;;6.10;63.10;;;;;;5029341;28;20449;-66
2023/04/03 07:29:02;;;;;;;4.07;2.87;;;6.30;61.80;;;;;;5029076;28;20478;-67
2023/04/03 07:31:28;;;;;;;5.13;3.13;;;6.30;60.10;;;;;;5029222;28;20463;-67
2023/04/03 07:33:57;;;;;;;6.70;3.07;;;6.00;59.40;;;;;;5028725;28;20797;-66
2023/04/03 07:36:24;;;;;;;3.63;3.20;;;5.80;60.80;;;;;;5028751;28;20957;-66
2023/04/03 07:38:50;;;;;;;3.30;2.97;;;5.80;64.30;;;;;;5028926;28;20835;-67
2023/04/03 07:41:22;;;;;;;3.80;2.77;;;6.00;62.00;;;;;;5028775;28;20456;-66
2023/04/03 07:43:49;;;;;;;4.20;3.17;;;5.80;61.00;;;;;;5028814;28;20453;-66
2023/04/03 07:46:17;;;;;;;3.97;3.37;;;5.70;64.10;;;;;;5028231;28;20459;-67
2023/04/03 07:48:44;;;;;;;3.57;3.00;;;5.90;63.80;;;;;;5028775;28;20875;-67
2023/04/03 07:51:13;;;;;;;3.33;3.03;;;5.90;62.80;;;;;;5028455;28;20875;-68
2023/04/03 07:53:40;;;;;;;4.77;3.30;;;5.70;62.40;;;;;;5028544;28;20502;-66
2023/04/03 07:56:07;;;;;;;3.33;2.83;;;5.70;64.10;;;;;;5028845;28;20471;-66
2023/04/03 07:58:34;;;;;;;2.93;2.70;;;5.90;62.90;;;;;;5028455;28;20464;-66
2023/04/03 08:01:01;;;;;;;3.37;3.07;;;5.90;62.40;;;;;;5028909;28;20452;-68
2023/04/03 08:03:28;;;;;;;3.60;3.00;;;5.70;63.40;;;;;;5028572;28;20970;-64
2023/04/03 08:05:55;;;;;;;3.03;2.73;;;5.70;63.40;;;;;;5028631;28;20456;-64
2023/04/03 08:08:23;;;;;;;3.97;3.47;;;5.70;62.40;;;;;;5028219;28;20468;-67
2023/04/03 08:10:52;;;;;;;3.47;3.10;;;5.80;63.10;;;;;;5028487;28;20529;-66
2023/04/03 08:13:19;;;;;;;6.50;2.87;;;6.00;63.50;;;;;;5027739;28;20449;-66
2023/04/03 08:15:46;;;;;;;3.43;2.87;;;6.30;62.30;;;;;;5028762;28;20443;-67
2023/04/03 08:18:13;;;;;;;5.53;3.30;;;6.50;62.90;;;;;;5028498;28;20456;-65
2023/04/03 08:20:41;;;;;;;3.37;3.07;;;6.60;60.00;;;;;;5028792;28;20450;-68
2023/04/03 08:23:08;;;;;;;4.73;2.73;;;6.60;61.80;;;;;;5028628;28;20444;-66
2023/04/03 08:25:39;;;;;;;3.90;2.87;;;6.90;61.30;;;;;;5028935;28;20465;-67
2023/04/03 08:28:06;;;;;;;5.50;2.77;;;7.10;58.10;;;;;;5029764;28;20486;-67
2023/04/03 08:30:33;;;;;;;4.43;3.10;;;7.30;57.80;;;;;;5026990;28;20459;-67
2023/04/03 08:33:01;;;;;;;7.77;3.40;;;7.20;59.40;;;;;;5028797;28;20455;-67
2023/04/03 08:35:28;;;;;;;3.67;2.17;;;7.50;59.80;;;;;;5028454;28;20807;-66
2023/04/03 08:37:55;;;;;;;5.10;3.07;;;7.70;57.40;;;;;;5029880;28;20470;-67
2023/04/03 08:40:22;;;;;;;5.17;3.33;;;7.90;57.10;;;;;;5029374;28;20480;-66
2023/04/03 08:43:04;;;;;;;4.23;2.90;;;7.80;57.60;;;;;;5029378;28;20459;-69
2023/04/03 08:45:42;;;;;;;3.00;2.80;;;7.90;56.40;;;;;;5029734;28;20510;-66
2023/04/03 08:48:15;;;;;;;4.50;2.77;;;7.90;57.90;;;;;;5029502;28;20488;-67
2023/04/03 08:50:47;;;;;;;4.03;3.33;;;7.80;57.50;;;;;;5029454;28;20460;-66
2023/04/03 08:53:16;;;;;;;5.57;2.93;;;7.70;56.20;;;;;;5029412;28;20459;-66
2023/04/03 08:55:46;;;;;;;6.90;3.30;;;7.20;56.90;;;;;;5029704;28;20449;-66
2023/04/03 08:58:17;;;;;;;4.53;4.23;;;7.40;58.60;;;;;;5029529;28;20807;-67
2023/04/03 09:00:47;;;;;;;4.40;3.10;;;7.80;56.60;;;;;;5029523;28;20485;-68
2023/04/03 09:03:15;;;;;;;3.73;2.47;;;7.90;57.00;;;;;;5028851;28;20447;-65
2023/04/03 09:05:47;;;;;;;6.50;2.57;;;7.60;54.60;;;;;;5029748;28;20976;-65
2023/04/03 09:08:22;;;;;;;2.40;2.20;;;6.90;55.80;;;;;;5029656;28;20467;-68
2023/04/03 09:10:50;;;;;;;3.83;2.70;;;6.50;56.90;;;;;;5029686;28;21188;-66
2023/04/03 09:13:28;;;;;;;4.40;2.97;;;6.30;58.40;;;;;;5029146;28;20501;-64
2023/04/03 09:15:55;;;;;;;4.30;2.50;;;6.50;58.70;;;;;;5029330;28;20453;-67
2023/04/03 09:18:29;;;;;;;6.20;3.07;;;6.80;57.10;;;;;;5029644;28;20446;-66
2023/04/03 09:21:04;;;;;;;2.60;2.40;;;7.00;57.30;;;;;;5029427;28;20455;-66
2023/04/03 09:23:34;;;;;;;3.00;2.70;;;7.40;57.80;;;;;;5029200;28;20453;-66
2023/04/03 09:26:06;;;;;;;5.07;2.80;;;7.80;55.90;;;;;;5029476;28;20477;-66
2023/04/03 09:28:38;;;;;;;4.60;2.77;;;8.30;56.30;;;;;;5029755;28;20837;-67
2023/04/03 09:31:19;;;;;;;3.10;2.57;;;8.80;53.70;;;;;;5033012;28;20962;-64
2023/04/03 09:33:46;;;;;;;4.13;2.47;;;7.80;51.50;;;;;;5032966;28;20454;-66
2023/04/03 09:36:13;;;;;;;2.60;2.40;;;7.70;55.60;;;;;;5032926;28;20458;-67
2023/04/03 09:38:40;;;;;;;3.53;2.47;;;8.00;54.80;;;;;;5036456;28;20466;-68
2023/04/03 09:41:14;;;;;;;3.13;2.70;;;8.30;53.80;;;;;;5038128;28;20470;-67
2023/04/03 09:43:53;;;;;;;2.80;2.60;;;8.10;55.60;;;;;;5036713;28;20946;-64
2023/04/03 09:46:29;;;;;;;5.00;2.50;;;8.50;55.10;;;;;;5034981;28;20453;-68
2023/04/03 09:48:58;;;;;;;2.90;2.53;;;8.80;51.50;;;;;;5033077;28;20571;-66
2023/04/03 09:51:28;;;;;;;3.73;2.60;;;8.80;52.30;;;;;;5032644;28;20445;-66
2023/04/03 09:53:55;;;;;;;5.97;2.60;;;9.00;53.00;;;;;;5032302;28;20501;-66
2023/04/03 09:56:26;;;;;;;2.40;2.20;;;8.30;53.20;;;;;;5032562;28;20521;-65
2023/04/03 09:59:09;;;;;;;3.47;2.70;;;7.90;53.80;;;;;;5032372;28;20472;-68
2023/04/03 10:01:38;;;;;;;3.70;2.50;;;8.00;53.40;;;;;;5032255;28;20455;-65
2023/04/03 10:04:11;;;;;;;4.97;2.57;;;7.90;54.00;;;;;;5032127;28;20482;-68
2023/04/03 10:06:43;;;;;;;2.80;2.30;;;7.60;55.40;;;;;;5032600;28;20444;-65
2023/04/03 10:09:20;;;;;;;4.10;2.60;;;7.40;54.80;;;;;;5032265;28;20485;-66
2023/04/03 10:12:04;;;;;;;3.93;2.70;;;7.00;56.90;;;;;;5032338;28;20450;-65
2023/04/03 10:14:34;;;;;;;3.23;2.77;;;7.10;56.90;;;;;;5032415;28;20453;-69
2023/04/03 10:17:11;;;;;;;4.10;2.10;;;7.50;57.50;;;;;;5032576;28;20457;-66
2023/04/03 10:19:42;;;;;;;3.40;2.97;;;7.50;55.90;;;;;;5032096;28;20468;-67
2023/04/03 10:22:18;;;;;;;4.03;2.70;;;7.10;54.30;;;;;;5032282;28;20516;-66
2023/04/03 10:24:52;;;;;;;3.57;2.50;;;6.60;55.90;;;;;;5031704;28;20451;-67
2023/04/03 10:27:27;;;;;;;2.97;2.23;;;6.40;57.00;;;;;;5032046;28;20454;-65
2023/04/03 10:30:04;;;;;;;4.90;3.00;;;6.50;55.10;;;;;;5031881;28;20495;-66
2023/04/03 10:32:49;;;;;;;3.90;2.20;;;6.60;56.00;;;;;;5031654;28;20460;-66
2023/04/03 10:35:26;;;;;;;3.30;2.30;;;6.70;56.00;;;;;;5030366;28;20462;-65
2023/04/03 10:38:01;;;;;;;2.57;2.27;;;6.60;56.30;;;;;;5031821;28;20441;-66
2023/04/03 10:40:35;;;;;;;4.90;2.70;;;7.00;54.50;;;;;;5030405;28;20480;-66
2023/04/03 10:43:09;;;;;;;4.07;3.67;;;7.10;54.60;;;;;;5031463;28;20439;-67
2023/04/03 10:45:51;;;;;;;4.93;2.60;;;7.40;54.20;;;;;;5031366;28;20570;-67
2023/04/03 10:48:29;;;;;;;4.27;2.60;;;7.30;54.50;;;;;;5031448;28;21170;-65
2023/04/03 10:51:04;;;;;;;3.07;2.07;;;7.50;53.00;;;;;;5031757;28;20441;-65
2023/04/03 10:53:40;;;;;;;2.43;2.10;;;7.40;54.00;;;;;;5031178;28;20457;-65
2023/04/03 10:56:16;;;;;;;2.40;1.83;;;7.80;52.00;;;;;;5031434;28;20443;-66
2023/04/03 10:58:46;;;;;;;2.97;2.00;;;8.10;50.90;;;;;;5031434;28;20456;-67
2023/04/03 11:01:17;;;;;;;5.63;2.23;;;8.50;50.50;;;;;;5031131;28;20467;-65
2023/04/03 11:03:47;;;;;;;1.67;1.50;;;8.50;49.60;;;;;;5031131;28;20447;-66
2023/04/03 11:06:17;;;;;;;3.03;1.70;;;8.20;47.20;;;;;;5031008;28;20950;-66
2023/04/03 11:08:47;;;;;;;1.70;1.60;;;8.00;47.10;;;;;;5031099;28;20461;-66
2023/04/03 11:11:17;;;;;;;3.03;2.00;;;7.90;49.60;;;;;;5030912;28;20813;-66
2023/04/03 11:13:48;;;;;;;5.00;1.70;;;8.00;48.00;;;;;;5030746;28;20447;-65
2023/04/03 11:16:21;;;;;;;2.10;1.53;;;7.70;48.20;;;;;;5030863;28;20968;-67
2023/04/03 11:18:53;;;;;;;1.87;1.77;;;7.30;50.00;;;;;;5030730;28;20470;-65
2023/04/03 11:21:24;;;;;;;2.90;2.00;;;7.30;49.20;;;;;;5031179;28;20452;-66
2023/04/03 11:23:52;;;;;;;4.00;2.20;;;7.40;50.60;;;;;;5030495;28;21031;-67
2023/04/03 11:26:22;;;;;;;2.33;2.07;;;7.50;51.10;;;;;;5030761;28;20457;-66
2023/04/03 11:28:54;;;;;;;4.60;1.90;;;7.30;49.90;;;;;;5030662;28;20469;-65
2023/04/03 11:31:34;;;;;;;2.50;1.50;;;6.90;50.50;;;;;;5030605;28;20515;-67
2023/04/03 11:34:12;;;;;;;2.23;1.80;;;6.60;50.90;;;;;;5030401;28;21111;-65
2023/04/03 11:36:43;;;;;;;2.60;2.00;;;6.50;52.20;;;;;;5030696;28;20456;-66
2023/04/03 11:39:21;;;;;;;4.00;1.73;;;6.60;54.80;;;;;;5030599;28;20476;-66
2023/04/03 11:41:48;;;;;;;3.00;1.80;;;7.00;53.10;;;;;;5030250;28;20988;-66
2023/04/03 11:44:34;;;;;;;2.70;2.10;;;7.30;51.60;;;;;;5030343;28;20456;-68
2023/04/03 11:47:04;;;;;;;2.50;2.30;;;7.80;52.80;;;;;;5030529;28;20454;-66
2023/04/03 11:50:00;;;;;;;4.10;2.00;;;8.00;49.70;;;;;;5030688;28;20480;-67
2023/04/03 11:52:58;;;;;;;2.37;1.70;;;7.80;50.80;;;;;;5029845;28;20459;-65
2023/04/03 11:55:45;;;;;;;3.40;1.77;;;8.10;49.10;;;;;;5004384;28;20447;-66
2023/04/03 11:58:17;;;;;;;3.37;2.07;;;8.60;49.00;;;;;;5030156;28;20874;-66
2023/04/03 12:00:58;;;;;;;4.13;1.67;;;9.00;48.70;;;;;;5030420;28;20480;-66
2023/04/03 12:04:07;;;;;;;5.23;2.03;;;8.50;48.40;;;;;;5029970;28;21015;-67
2023/04/03 12:06:59;;;;;;;3.30;1.83;;;8.50;49.40;;;;;;5030210;28;20859;-66
2023/04/03 12:10:03;;;;;;;2.30;1.63;;;8.70;47.50;;;;;;5030123;28;21149;-67
2023/04/03 12:12:41;;;;;;;2.20;1.73;;;8.50;46.40;;;;;;5030202;28;20490;-68
2023/04/03 12:15:22;;;;;;;3.17;2.00;;;7.80;47.60;;;;;;5030364;28;20450;-66
2023/04/03 12:17:49;;;;;;;3.53;2.27;;;7.80;49.50;;;;;;5030345;28;20450;-67
2023/04/03 12:20:56;;;;;;;2.33;1.80;;;8.30;48.80;;;;;;5030260;28;20522;-63
2023/04/03 12:23:32;;;;;;;1.87;1.50;;;8.20;44.60;;;;;;5021380;28;20455;-65
2023/04/03 12:26:21;;;;;;;1.93;1.67;;;8.40;47.40;;;;;;5030225;28;20447;-65
2023/04/03 12:28:50;;;;;;;3.10;2.10;;;7.90;47.00;;;;;;5030004;28;20466;-65
2023/04/03 12:31:17;;;;;;;3.10;2.10;;;7.70;49.30;;;;;;5029710;28;20483;-67
2023/04/03 12:34:08;;;;;;;2.10;1.90;;;7.70;50.20;;;;;;5029253;28;20978;-66
2023/04/03 12:36:45;;;;;;;4.03;2.33;;;7.40;48.40;;;;;;5029923;28;20459;-68
2023/04/03 12:39:37;;;;;;;4.00;2.10;;;7.40;49.50;;;;;;5026550;28;20478;-68
2023/04/03 12:42:18;;;;;;;3.43;1.80;;;7.60;49.70;;;;;;5033240;28;20448;-64
2023/04/03 12:44:57;;;;;;;2.40;2.20;;;7.70;49.40;;;;;;5029305;28;20451;-68
2023/04/03 12:47:28;;;;;;;4.20;2.27;;;8.20;49.40;;;;;;5029858;28;20467;-68
2023/04/03 12:49:56;;;;;;;4.33;2.30;;;8.50;49.20;;;;;;5028992;28;20520;-71
2023/04/03 12:52:33;;;;;;;3.93;2.20;;;8.70;48.50;;;;;;5029244;28;20483;-68
2023/04/03 12:55:03;;;;;;;3.93;1.80;;;8.70;48.60;;;;;;5029501;28;20457;-68
2023/04/03 12:57:32;;;;;;;3.33;2.00;;;9.00;45.60;;;;;;5029737;28;20461;-67
2023/04/03 12:59:59;;;;;;;3.70;2.27;;;8.70;45.20;;;;;;5029378;28;20469;-68
2023/04/03 13:02:28;;;;;;;3.40;2.20;;;8.80;47.40;;;;;;5028976;28;20549;-66
2023/04/03 13:04:59;;;;;;;2.60;2.23;;;9.10;46.00;;;;;;5031807;28;20453;-63
2023/04/03 13:07:31;;;;;;;4.03;1.90;;;9.10;44.10;;;;;;5033526;28;20491;-67
2023/04/03 13:10:14;;;;;;;3.50;2.30;;;8.50;45.70;;;;;;5033228;28;20481;-66
2023/04/03 13:12:48;;;;;;;4.80;2.20;;;7.90;47.40;;;;;;5032838;28;20548;-65